createdAt,value
2022-10-24T00:07:36.105Z,14.10
2022-10-24T00:37:40.602Z,13.87
2022-10-24T01:07:51.181Z,13.53
2022-10-24T01:38:01.795Z,13.20
2022-10-24T03:09:13.688Z,13.09
2022-10-24T03:39:17.835Z,12.97
2022-10-24T04:09:22.091Z,12.87
2022-10-24T04:39:26.204Z,12.82
2022-10-24T05:09:30.501Z,12.82
2022-10-24T05:39:34.715Z,12.67
2022-10-24T06:09:39.023Z,12.58
2022-10-24T06:39:43.463Z,12.69
2022-10-24T07:09:52.974Z,13.31
2022-10-24T07:39:57.378Z,13.92
2022-10-24T08:10:01.550Z,14.71
2022-10-24T08:40:09.123Z,16.76
2022-10-24T09:10:16.925Z,17.02
2022-10-24T09:40:23.143Z,22.52
2022-10-24T10:10:33.221Z,19.38
2022-10-24T10:40:38.889Z,22.09
2022-10-24T11:10:49.472Z,24.53
2022-10-24T11:40:58.825Z,21.64
2022-10-24T12:11:22.142Z,20.63
2022-10-24T12:41:43.199Z,27.23
2022-10-24T13:11:59.315Z,20.79
2022-10-24T13:42:05.689Z,19.93
2022-10-24T14:12:19.017Z,20.50
2022-10-24T14:42:23.415Z,19.30
2022-10-24T15:12:34.177Z,17.61
2022-10-24T15:42:38.306Z,16.87
2022-10-24T16:12:42.559Z,16.47
2022-10-24T16:42:47.063Z,16.18
2022-10-24T17:12:51.383Z,15.76
2022-10-24T17:42:56.556Z,15.59
2022-10-24T18:13:00.827Z,14.83
2022-10-24T18:43:06.002Z,14.54
2022-10-24T19:13:10.542Z,14.43
2022-10-24T19:43:15.018Z,14.41
2022-10-24T20:13:20.645Z,14.20
2022-10-24T20:43:24.807Z,14.14
2022-10-24T21:13:28.946Z,14.12
2022-10-24T21:43:34.048Z,14.11
2022-10-24T22:13:38.469Z,13.99
2022-10-24T22:43:43.126Z,13.96
2022-10-24T23:13:48.373Z,13.91
2022-10-24T23:43:53.203Z,13.68
